Ashton-under-Lyne, United Kingdom
Current Conditions -  °F | °C
As of 11:20 AM on Sunday 21 Dec 2014 (Local Time) from EGCC Reporting Station
Broken Clouds Broken Clouds  
Wind Chill: 43°   Ceiling: 2200
Heat Index: 48°   Visibility: 6mi
Dew Point: 45°   Wind: 13mph
Humidity: 87%   Direction: 200°SSW
Pressure: 30.15"   Gusts: NA
Location:  53.49°N, 2.1°W
Report Text: EGCC 211120Z 20011KT 9999 FEW011 BKN022 09/07 Q1021 NOSIG
Loading
Personal Weather Stations






























Interactive Weather Map New forecast layout! Learn more

10-Day Weather Forecast

Advertisements
Track Severe Weather on mobile